George Bush Intercontinental Houston Airport


Codes: KIAH/IAH
Name: George Bush Intercontinental Houston Airport
City: Houston
Country: United States
Elevation: 97 ft.
Website:
Wikipedia:

Photos at George Bush Intercontinental Houston Airport


   Photos courtesy of SpottingLog. You can add your own sightings and photos by signing up for a free trial today.



N914FJ, 04-Oct-2023
© Erik van der Eyken

N549VL, 04-Oct-2023
© Erik van der Eyken

N576QS, 04-Oct-2023
© Erik van der Eyken

N641AZ, 04-Oct-2023
© Erik van der Eyken

N665P, 04-Oct-2023
© Erik van der Eyken

N837UA, 04-Oct-2023
© Erik van der Eyken

N875UA, 04-Oct-2023
© Erik van der Eyken

N897UA, 04-Oct-2023
© Erik van der Eyken

N4901U, 04-Oct-2023
© Erik van der Eyken

N950AM, 04-Oct-2023
© Erik van der Eyken

N937AN, 04-Oct-2023
© Erik van der Eyken

N12175, 04-Oct-2023
© Erik van der Eyken


Weather at George Bush Intercontinental Houston Airport


Time (UTC)DescriptionTempratureWindCloud coverageVisibilityPressureHumidity
19-Apr-2024 03:00Broken Clouds24°C7 mph, SE75%10000m1015hPa81%
19-Apr-2024 06:00Broken Clouds24°C4 mph, S82%10000m1015hPa83%
19-Apr-2024 09:00Overcast Clouds23°C2 mph, E92%10000m1015hPa86%
19-Apr-2024 12:00Overcast Clouds22°C0 mph, SE100%10000m1016hPa89%
19-Apr-2024 15:00Overcast Clouds26°C4 mph, E88%10000m1017hPa69%
19-Apr-2024 18:00Overcast Clouds27°C7 mph, NE90%10000m1016hPa64%
19-Apr-2024 21:00Overcast Clouds28°C4 mph, E100%10000m1015hPa60%
20-Apr-2024 00:00Light Rain27°C4 mph, SE99%10000m1014hPa72%
20-Apr-2024 03:00Broken Clouds24°C4 mph, SE65%10000m1016hPa80%
20-Apr-2024 06:00Broken Clouds23°C4 mph, SE60%10000m1016hPa85%
20-Apr-2024 09:00Overcast Clouds22°C2 mph, E89%10000m1017hPa89%
20-Apr-2024 12:00Overcast Clouds21°C7 mph, E95%10000m1016hPa91%
20-Apr-2024 15:00Overcast Clouds24°C7 mph, E100%10000m1018hPa75%
20-Apr-2024 18:00Overcast Clouds29°C9 mph, E100%10000m1017hPa50%
20-Apr-2024 21:00Overcast Clouds29°C11 mph, SE99%10000m1014hPa45%
21-Apr-2024 00:00Overcast Clouds26°C9 mph, SE99%10000m1014hPa55%
21-Apr-2024 03:00Overcast Clouds23°C9 mph, E100%10000m1016hPa77%
21-Apr-2024 06:00Light Rain19°C11 mph, NE100%10000m1017hPa83%
21-Apr-2024 09:00Light Rain17°C11 mph, NE100%10000m1017hPa87%
21-Apr-2024 12:00Light Rain16°C7 mph, NE99%10000m1018hPa87%
21-Apr-2024 15:00Overcast Clouds15°C11 mph, N97%10000m1021hPa82%
21-Apr-2024 18:00Overcast Clouds17°C11 mph, N98%10000m1021hPa70%
21-Apr-2024 21:00Overcast Clouds20°C11 mph, N89%10000m1019hPa58%
22-Apr-2024 00:00Overcast Clouds18°C11 mph, NE87%10000m1019hPa63%
22-Apr-2024 03:00Overcast Clouds16°C9 mph, NE85%10000m1021hPa68%
22-Apr-2024 06:00Broken Clouds16°C7 mph, NE84%10000m1021hPa66%
22-Apr-2024 09:00Overcast Clouds14°C7 mph, NE90%10000m1019hPa71%
22-Apr-2024 12:00Overcast Clouds13°C7 mph, NE94%10000m1020hPa66%
22-Apr-2024 15:00Overcast Clouds16°C7 mph, E100%10000m1021hPa48%
22-Apr-2024 18:00Overcast Clouds21°C7 mph, E100%10000m1019hPa39%
22-Apr-2024 21:00Overcast Clouds23°C7 mph, SE96%10000m1016hPa37%
23-Apr-2024 00:00Overcast Clouds21°C9 mph, SE98%10000m1016hPa46%
23-Apr-2024 03:00Scattered Clouds18°C7 mph, SE34%10000m1017hPa62%
23-Apr-2024 06:00Few Clouds17°C4 mph, SE18%10000m1016hPa74%
23-Apr-2024 09:00Few Clouds17°C2 mph, SE11%10000m1015hPa81%
23-Apr-2024 12:00Scattered Clouds18°C2 mph, SE35%10000m1015hPa81%
23-Apr-2024 15:00Scattered Clouds22°C4 mph, S50%10000m1016hPa64%
23-Apr-2024 18:00Broken Clouds28°C4 mph, S58%10000m1015hPa49%
23-Apr-2024 21:00Broken Clouds27°C11 mph, S69%10000m1014hPa59%
24-Apr-2024 00:00Light Rain26°C9 mph, SE76%10000m1014hPa64%